sensor_id;sensor_type;location;lat;lon;timestamp;pressure;altitude;pressure_sealevel;temperature;humidity
77737;BME280;66903;59.926;30.404;2023-04-25T00:01:08;100609.13;;;28.95;34.04
77737;BME280;66903;59.926;30.404;2023-04-25T00:06:09;100607.41;;;28.94;34.26
77737;BME280;66903;59.926;30.404;2023-04-25T00:11:09;100608.63;;;28.93;34.07
77737;BME280;66903;59.926;30.404;2023-04-25T00:16:10;100603.69;;;28.93;34.19
77737;BME280;66903;59.926;30.404;2023-04-25T00:21:11;100597.47;;;28.91;34.77
77737;BME280;66903;59.926;30.404;2023-04-25T00:26:12;100598.63;;;28.90;34.53
77737;BME280;66903;59.926;30.404;2023-04-25T00:31:13;100599.47;;;28.91;34.54
77737;BME280;66903;59.926;30.404;2023-04-25T00:36:13;100589.16;;;28.90;34.81
77737;BME280;66903;59.926;30.404;2023-04-25T00:41:15;100593.56;;;28.87;34.18
77737;BME280;66903;59.926;30.404;2023-04-25T00:46:15;100593.56;;;28.87;35.10
77737;BME280;66903;59.926;30.404;2023-04-25T00:51:19;100584.94;;;28.87;34.34
77737;BME280;66903;59.926;30.404;2023-04-25T00:56:20;100590.19;;;28.85;34.37
77737;BME280;66903;59.926;30.404;2023-04-25T01:01:21;100603.34;;;28.86;34.48
77737;BME280;66903;59.926;30.404;2023-04-25T01:06:22;100604.56;;;28.85;34.86
77737;BME280;66903;59.926;30.404;2023-04-25T01:11:23;100602.53;;;28.86;34.63
77737;BME280;66903;59.926;30.404;2023-04-25T01:16:23;100602.88;;;28.84;34.42
77737;BME280;66903;59.926;30.404;2023-04-25T01:21:24;100586.28;;;28.81;34.16
77737;BME280;66903;59.926;30.404;2023-04-25T01:26:27;100600.31;;;28.83;34.07
77737;BME280;66903;59.926;30.404;2023-04-25T01:31:28;100592.03;;;28.81;34.27
77737;BME280;66903;59.926;30.404;2023-04-25T01:36:29;100594.09;;;28.81;33.88
77737;BME280;66903;59.926;30.404;2023-04-25T01:41:31;100596.13;;;28.80;34.17
77737;BME280;66903;59.926;30.404;2023-04-25T01:46:33;100596.97;;;28.81;34.28
77737;BME280;66903;59.926;30.404;2023-04-25T01:51:34;100586.47;;;28.76;33.75
77737;BME280;66903;59.926;30.404;2023-04-25T01:56:37;100591.53;;;28.79;34.09
77737;BME280;66903;59.926;30.404;2023-04-25T02:01:37;100591.06;;;28.77;34.53
77737;BME280;66903;59.926;30.404;2023-04-25T02:06:38;100604.22;;;28.78;34.21
77737;BME280;66903;59.926;30.404;2023-04-25T02:11:38;100595.09;;;28.76;34.47
77737;BME280;66903;59.926;30.404;2023-04-25T02:16:39;100593.78;;;28.74;33.91
77737;BME280;66903;59.926;30.404;2023-04-25T02:21:39;100592.06;;;28.73;33.64
77737;BME280;66903;59.926;30.404;2023-04-25T02:26:40;100591.56;;;28.71;33.60
77737;BME280;66903;59.926;30.404;2023-04-25T02:31:41;100599.19;;;28.67;33.56
77737;BME280;66903;59.926;30.404;2023-04-25T02:36:41;100597.81;;;28.64;34.12
77737;BME280;66903;59.926;30.404;2023-04-25T02:41:42;100607.66;;;28.63;33.30
77737;BME280;66903;59.926;30.404;2023-04-25T02:46:42;100594.44;;;28.62;33.79
77737;BME280;66903;59.926;30.404;2023-04-25T02:51:43;100591.06;;;28.60;33.72
77737;BME280;66903;59.926;30.404;2023-04-25T02:56:43;100594.44;;;28.62;33.46
77737;BME280;66903;59.926;30.404;2023-04-25T03:01:44;100583.63;;;28.59;33.24
77737;BME280;66903;59.926;30.404;2023-04-25T03:06:45;100590.25;;;28.60;33.48
77737;BME280;66903;59.926;30.404;2023-04-25T03:11:46;100598.00;;;28.59;33.28
77737;BME280;66903;59.926;30.404;2023-04-25T03:16:46;100600.88;;;28.59;33.46
77737;BME280;66903;59.926;30.404;2023-04-25T03:21:47;100604.91;;;28.58;33.01
77737;BME280;66903;59.926;30.404;2023-04-25T03:26:48;100600.88;;;28.59;33.04
77737;BME280;66903;59.926;30.404;2023-04-25T03:31:48;100594.13;;;28.55;32.77
77737;BME280;66903;59.926;30.404;2023-04-25T03:36:49;100602.22;;;28.62;33.09
77737;BME280;66903;59.926;30.404;2023-04-25T03:41:50;100610.00;;;28.61;33.38
77737;BME280;66903;59.926;30.404;2023-04-25T03:46:50;100612.53;;;28.63;33.09
77737;BME280;66903;59.926;30.404;2023-04-25T03:51:50;100611.34;;;28.64;33.06
77737;BME280;66903;59.926;30.404;2023-04-25T03:56:51;100620.47;;;28.66;33.02
77737;BME280;66903;59.926;30.404;2023-04-25T04:01:52;100620.13;;;28.67;32.47
77737;BME280;66903;59.926;30.404;2023-04-25T04:06:52;100607.81;;;28.67;32.61
77737;BME280;66903;59.926;30.404;2023-04-25T04:11:53;100615.41;;;28.71;32.99
77737;BME280;66903;59.926;30.404;2023-04-25T04:16:54;100622.19;;;28.67;32.27
77737;BME280;66903;59.926;30.404;2023-04-25T04:21:54;100608.81;;;28.62;32.37
77737;BME280;66903;59.926;30.404;2023-04-25T04:26:55;100611.19;;;28.60;31.80
77737;BME280;66903;59.926;30.404;2023-04-25T04:31:56;100617.63;;;28.57;31.69
77737;BME280;66903;59.926;30.404;2023-04-25T04:36:57;100615.94;;;28.56;31.80
77737;BME280;66903;59.926;30.404;2023-04-25T04:41:57;100615.94;;;28.56;31.91
77737;BME280;66903;59.926;30.404;2023-04-25T04:46:59;100615.59;;;28.58;32.10
77737;BME280;66903;59.926;30.404;2023-04-25T04:51:59;100624.72;;;28.60;31.86
77737;BME280;66903;59.926;30.404;2023-04-25T04:57:00;100611.88;;;28.57;31.56
77737;BME280;66903;59.926;30.404;2023-04-25T05:02:01;100622.03;;;28.63;31.96
77737;BME280;66903;59.926;30.404;2023-04-25T05:07:01;100621.34;;;28.66;31.17
77737;BME280;66903;59.926;30.404;2023-04-25T05:12:02;100616.09;;;28.68;31.42
77737;BME280;66903;59.926;30.404;2023-04-25T05:17:03;100621.16;;;28.71;30.96
77737;BME280;66903;59.926;30.404;2023-04-25T05:22:06;100618.78;;;28.73;31.16
77737;BME280;66903;59.926;30.404;2023-04-25T05:27:07;100624.72;;;28.77;31.31
77737;BME280;66903;59.926;30.404;2023-04-25T05:32:07;100616.59;;;28.79;30.56
77737;BME280;66903;59.926;30.404;2023-04-25T05:37:08;100616.75;;;28.82;30.69
77737;BME280;66903;59.926;30.404;2023-04-25T05:42:09;100616.06;;;28.85;30.39
77737;BME280;66903;59.926;30.404;2023-04-25T05:47:10;100613.50;;;28.92;30.64
77737;BME280;66903;59.926;30.404;2023-04-25T05:52:11;100617.56;;;29.00;30.13
77737;BME280;66903;59.926;30.404;2023-04-25T05:57:26;100609.63;;;29.14;30.82
77737;BME280;66903;59.926;30.404;2023-04-25T06:02:26;100602.97;;;29.22;30.23
77737;BME280;66903;59.926;30.404;2023-04-25T06:07:27;100605.78;;;29.39;29.87
77737;BME280;66903;59.926;30.404;2023-04-25T06:12:27;100601.78;;;29.61;29.89
77737;BME280;66903;59.926;30.404;2023-04-25T06:17:28;100618.81;;;29.83;29.68
77737;BME280;66903;59.926;30.404;2023-04-25T06:22:28;100613.78;;;30.00;29.39
77737;BME280;66903;59.926;30.404;2023-04-25T06:27:29;100612.84;;;30.17;29.13
77737;BME280;66903;59.926;30.404;2023-04-25T06:32:29;100609.84;;;30.34;28.84
77737;BME280;66903;59.926;30.404;2023-04-25T06:37:30;100608.50;;;30.52;29.19
77737;BME280;66903;59.926;30.404;2023-04-25T06:42:30;100605.81;;;30.68;28.79
77737;BME280;66903;59.926;30.404;2023-04-25T06:47:31;100609.56;;;30.89;28.35
77737;BME280;66903;59.926;30.404;2023-04-25T06:52:32;100603.75;;;31.21;28.13
77737;BME280;66903;59.926;30.404;2023-04-25T06:57:32;100598.81;;;31.67;28.12
77737;BME280;66903;59.926;30.404;2023-04-25T07:02:33;100603.97;;;32.21;27.83
77737;BME280;66903;59.926;30.404;2023-04-25T07:07:33;100596.41;;;32.69;27.60
77737;BME280;66903;59.926;30.404;2023-04-25T07:12:34;100596.34;;;33.08;26.32
77737;BME280;66903;59.926;30.404;2023-04-25T07:17:34;100605.31;;;33.46;26.83
77737;BME280;66903;59.926;30.404;2023-04-25T07:22:35;100600.53;;;33.85;25.97
77737;BME280;66903;59.926;30.404;2023-04-25T07:27:35;100590.50;;;34.14;26.80
77737;BME280;66903;59.926;30.404;2023-04-25T07:32:36;100590.81;;;34.43;25.71
77737;BME280;66903;59.926;30.404;2023-04-25T07:37:36;100597.72;;;34.74;25.96
77737;BME280;66903;59.926;30.404;2023-04-25T07:42:37;100584.22;;;35.00;25.22
77737;BME280;66903;59.926;30.404;2023-04-25T07:47:38;100594.31;;;35.29;25.86
77737;BME280;66903;59.926;30.404;2023-04-25T07:52:38;100595.34;;;35.59;25.08
77737;BME280;66903;59.926;30.404;2023-04-25T08:03:36;100594.03;;;36.28;24.16
77737;BME280;66903;59.926;30.404;2023-04-25T08:08:36;100597.00;;;36.57;23.97
77737;BME280;66903;59.926;30.404;2023-04-25T08:19:18;100593.72;;;37.25;23.35
77737;BME280;66903;59.926;30.404;2023-04-25T08:24:18;100600.78;;;37.61;22.47
77737;BME280;66903;59.926;30.404;2023-04-25T08:29:19;100591.13;;;37.94;22.65
77737;BME280;66903;59.926;30.404;2023-04-25T08:34:20;100587.69;;;38.32;22.34
77737;BME280;66903;59.926;30.404;2023-04-25T08:39:21;100589.59;;;38.68;21.90
77737;BME280;66903;59.926;30.404;2023-04-25T08:44:22;100599.31;;;39.00;21.47
77737;BME280;66903;59.926;30.404;2023-04-25T08:49:24;100596.13;;;39.33;21.08
77737;BME280;66903;59.926;30.404;2023-04-25T08:54:27;100599.13;;;39.65;21.40
77737;BME280;66903;59.926;30.404;2023-04-25T08:59:28;100599.16;;;39.90;20.75
77737;BME280;66903;59.926;30.404;2023-04-25T09:04:31;100589.53;;;39.68;20.83
77737;BME280;66903;59.926;30.404;2023-04-25T09:09:31;100580.78;;;39.93;21.02
77737;BME280;66903;59.926;30.404;2023-04-25T09:14:32;100592.03;;;40.22;19.96
77737;BME280;66903;59.926;30.404;2023-04-25T09:19:35;100582.00;;;40.41;20.48
77737;BME280;66903;59.926;30.404;2023-04-25T09:24:41;100582.44;;;40.39;20.53
77737;BME280;66903;59.926;30.404;2023-04-25T09:29:43;100576.19;;;40.16;20.81
77737;BME280;66903;59.926;30.404;2023-04-25T09:34:55;100581.56;;;40.56;20.70
77737;BME280;66903;59.926;30.404;2023-04-25T09:39:57;100579.84;;;40.69;19.88
77737;BME280;66903;59.926;30.404;2023-04-25T09:45:05;100589.09;;;40.43;20.06
77737;BME280;66903;59.926;30.404;2023-04-25T09:50:14;100588.31;;;39.90;20.89
77737;BME280;66903;59.926;30.404;2023-04-25T09:55:15;100580.59;;;39.08;20.76
77737;BME280;66903;59.926;30.404;2023-04-25T10:00:17;100589.44;;;38.47;21.52
77737;BME280;66903;59.926;30.404;2023-04-25T10:05:18;100585.72;;;37.99;21.33
77737;BME280;66903;59.926;30.404;2023-04-25T10:10:18;100581.66;;;37.63;21.62
77737;BME280;66903;59.926;30.404;2023-04-25T10:15:21;100593.09;;;37.42;21.77
77737;BME280;66903;59.926;30.404;2023-04-25T10:20:22;100589.91;;;37.18;21.69
77737;BME280;66903;59.926;30.404;2023-04-25T10:25:23;100583.69;;;36.86;22.03
77737;BME280;66903;59.926;30.404;2023-04-25T10:30:24;100589.75;;;36.74;22.11
77737;BME280;66903;59.926;30.404;2023-04-25T10:35:27;100591.66;;;36.63;22.21
77737;BME280;66903;59.926;30.404;2023-04-25T10:40:28;100594.16;;;36.35;22.06
77737;BME280;66903;59.926;30.404;2023-04-25T10:45:28;100591.00;;;36.21;22.04
77737;BME280;66903;59.926;30.404;2023-04-25T10:50:37;100590.34;;;36.05;22.18
77737;BME280;66903;59.926;30.404;2023-04-25T10:55:51;100595.91;;;35.91;22.18
77737;BME280;66903;59.926;30.404;2023-04-25T11:00:52;100585.97;;;35.69;21.70
77737;BME280;66903;59.926;30.404;2023-04-25T11:05:52;100589.72;;;35.47;22.06
77737;BME280;66903;59.926;30.404;2023-04-25T11:10:53;100598.38;;;35.24;21.84
77737;BME280;66903;59.926;30.404;2023-04-25T11:15:55;100586.03;;;35.08;22.00
77737;BME280;66903;59.926;30.404;2023-04-25T11:20:55;100598.28;;;34.98;21.95
77737;BME280;66903;59.926;30.404;2023-04-25T11:25:56;100600.38;;;34.82;22.49
77737;BME280;66903;59.926;30.404;2023-04-25T11:30:56;100599.47;;;34.59;22.71
77737;BME280;66903;59.926;30.404;2023-04-25T11:35:57;100602.69;;;34.38;22.78
77737;BME280;66903;59.926;30.404;2023-04-25T11:40:58;100591.16;;;34.23;22.39
77737;BME280;66903;59.926;30.404;2023-04-25T11:45:59;100587.81;;;34.05;22.46
77737;BME280;66903;59.926;30.404;2023-04-25T11:51:00;100594.00;;;33.88;22.58
77737;BME280;66903;59.926;30.404;2023-04-25T11:56:00;100590.66;;;33.71;21.98
77737;BME280;66903;59.926;30.404;2023-04-25T12:01:01;100579.97;;;33.59;22.30
77737;BME280;66903;59.926;30.404;2023-04-25T12:06:03;100591.66;;;33.47;22.06
77737;BME280;66903;59.926;30.404;2023-04-25T12:11:04;100586.41;;;33.37;22.30
77737;BME280;66903;59.926;30.404;2023-04-25T12:16:05;100571.06;;;33.21;22.37
77737;BME280;66903;59.926;30.404;2023-04-25T12:21:05;100573.00;;;33.17;22.05
77737;BME280;66903;59.926;30.404;2023-04-25T12:26:06;100551.38;;;33.11;22.08
77737;BME280;66903;59.926;30.404;2023-04-25T12:31:07;100581.31;;;33.03;21.82
77737;BME280;66903;59.926;30.404;2023-04-25T12:36:08;100571.56;;;32.95;21.73
77737;BME280;66903;59.926;30.404;2023-04-25T12:41:10;100566.28;;;32.85;21.82
77737;BME280;66903;59.926;30.404;2023-04-25T12:46:11;100557.31;;;32.75;21.72
77737;BME280;66903;59.926;30.404;2023-04-25T12:51:11;100550.44;;;32.67;22.17
77737;BME280;66903;59.926;30.404;2023-04-25T12:56:12;100552.44;;;32.63;21.92
77737;BME280;66903;59.926;30.404;2023-04-25T13:01:12;100546.53;;;32.60;21.89
77737;BME280;66903;59.926;30.404;2023-04-25T13:06:18;100556.50;;;32.62;21.94
77737;BME280;66903;59.926;30.404;2023-04-25T13:11:19;100543.16;;;32.58;21.91
77737;BME280;66903;59.926;30.404;2023-04-25T13:16:20;100530.53;;;32.50;21.75
77737;BME280;66903;59.926;30.404;2023-04-25T13:21:23;100537.66;;;32.53;21.86
77737;BME280;66903;59.926;30.404;2023-04-25T13:26:24;100523.47;;;32.47;22.35
77737;BME280;66903;59.926;30.404;2023-04-25T13:31:25;100529.84;;;32.41;22.33
77737;BME280;66903;59.926;30.404;2023-04-25T13:36:26;100524.66;;;32.34;22.47
77737;BME280;66903;59.926;30.404;2023-04-25T13:41:26;100522.03;;;32.29;22.68
77737;BME280;66903;59.926;30.404;2023-04-25T13:46:27;100519.78;;;32.23;23.02
77737;BME280;66903;59.926;30.404;2023-04-25T13:51:27;100516.50;;;32.24;22.64
77737;BME280;66903;59.926;30.404;2023-04-25T13:56:28;100514.22;;;32.30;23.70
77737;BME280;66903;59.926;30.404;2023-04-25T14:01:28;100512.25;;;32.34;23.69
77737;BME280;66903;59.926;30.404;2023-04-25T14:06:31;100517.31;;;32.37;24.68
77737;BME280;66903;59.926;30.404;2023-04-25T14:11:32;100503.81;;;32.41;23.52
77737;BME280;66903;59.926;30.404;2023-04-25T14:16:33;100518.38;;;32.44;24.00
77737;BME280;66903;59.926;30.404;2023-04-25T14:21:34;100519.22;;;32.45;24.19
77737;BME280;66903;59.926;30.404;2023-04-25T14:26:35;100507.28;;;32.46;24.11
77737;BME280;66903;59.926;30.404;2023-04-25T14:31:36;100512.69;;;32.48;23.93
77737;BME280;66903;59.926;30.404;2023-04-25T14:36:36;100502.00;;;32.48;23.90
77737;BME280;66903;59.926;30.404;2023-04-25T14:41:37;100492.47;;;32.48;24.12
77737;BME280;66903;59.926;30.404;2023-04-25T14:46:37;100494.16;;;32.49;24.45
77737;BME280;66903;59.926;30.404;2023-04-25T14:51:38;100490.41;;;32.48;24.25
77737;BME280;66903;59.926;30.404;2023-04-25T14:56:38;100501.63;;;32.50;24.55
77737;BME280;66903;59.926;30.404;2023-04-25T15:01:39;100498.63;;;32.46;24.67
77737;BME280;66903;59.926;30.404;2023-04-25T15:06:40;100498.13;;;32.44;24.78
77737;BME280;66903;59.926;30.404;2023-04-25T15:11:41;100500.94;;;32.41;24.42
77737;BME280;66903;59.926;30.404;2023-04-25T15:16:42;100490.91;;;32.38;23.82
77737;BME280;66903;59.926;30.404;2023-04-25T15:21:43;100495.28;;;32.32;24.31
77737;BME280;66903;59.926;30.404;2023-04-25T15:26:44;100480.72;;;32.29;23.85
77737;BME280;66903;59.926;30.404;2023-04-25T15:31:46;100484.34;;;32.26;24.04
77737;BME280;66903;59.926;30.404;2023-04-25T15:36:47;100483.00;;;32.23;23.53
77737;BME280;66903;59.926;30.404;2023-04-25T15:41:48;100480.03;;;32.20;23.86
77737;BME280;66903;59.926;30.404;2023-04-25T15:52:09;100479.47;;;32.14;23.67
77737;BME280;66903;59.926;30.404;2023-04-25T15:57:09;100467.31;;;32.09;23.65
77737;BME280;66903;59.926;30.404;2023-04-25T16:02:12;100469.34;;;32.08;23.13
77737;BME280;66903;59.926;30.404;2023-04-25T16:07:13;100470.34;;;32.00;23.29
77737;BME280;66903;59.926;30.404;2023-04-25T16:12:14;100475.06;;;31.93;23.23
77737;BME280;66903;59.926;30.404;2023-04-25T16:17:15;100473.59;;;31.87;23.16
77737;BME280;66903;59.926;30.404;2023-04-25T16:22:16;100463.16;;;31.82;23.11
77737;BME280;66903;59.926;30.404;2023-04-25T16:27:17;100459.66;;;31.77;23.56
77737;BME280;66903;59.926;30.404;2023-04-25T16:32:18;100467.00;;;31.74;23.15
77737;BME280;66903;59.926;30.404;2023-04-25T16:37:18;100469.06;;;31.74;23.24
77737;BME280;66903;59.926;30.404;2023-04-25T16:42:19;100476.41;;;31.71;23.20
77737;BME280;66903;59.926;30.404;2023-04-25T16:47:19;100464.84;;;31.71;23.13
77737;BME280;66903;59.926;30.404;2023-04-25T16:52:20;100463.53;;;31.69;23.58
77737;BME280;66903;59.926;30.404;2023-04-25T16:57:22;100465.94;;;31.67;24.35
77737;BME280;66903;59.926;30.404;2023-04-25T17:02:23;100471.25;;;31.65;24.07
77737;BME280;66903;59.926;30.404;2023-04-25T17:07:23;100476.66;;;31.66;24.50
77737;BME280;66903;59.926;30.404;2023-04-25T17:12:24;100471.25;;;31.65;24.02
77737;BME280;66903;59.926;30.404;2023-04-25T17:17:25;100474.63;;;31.67;23.69
77737;BME280;66903;59.926;30.404;2023-04-25T17:22:25;100474.63;;;31.67;24.08
77737;BME280;66903;59.926;30.404;2023-04-25T17:27:26;100472.91;;;31.66;23.83
77737;BME280;66903;59.926;30.404;2023-04-25T17:32:27;100485.69;;;31.65;24.14
77737;BME280;66903;59.926;30.404;2023-04-25T17:37:28;100488.94;;;31.63;24.71
77737;BME280;66903;59.926;30.404;2023-04-25T17:42:28;100480.16;;;31.60;24.33
77737;BME280;66903;59.926;30.404;2023-04-25T17:47:29;100482.94;;;31.56;24.48
77737;BME280;66903;59.926;30.404;2023-04-25T17:52:31;100481.47;;;31.50;24.07
77737;BME280;66903;59.926;30.404;2023-04-25T17:57:32;100480.88;;;31.44;23.92
77737;BME280;66903;59.926;30.404;2023-04-25T18:02:32;100482.09;;;31.43;23.99
77737;BME280;66903;59.926;30.404;2023-04-25T18:07:35;100486.16;;;31.42;23.93
77737;BME280;66903;59.926;30.404;2023-04-25T18:12:36;100489.78;;;31.39;23.76
77737;BME280;66903;59.926;30.404;2023-04-25T18:17:37;100491.38;;;31.37;24.17
77737;BME280;66903;59.926;30.404;2023-04-25T18:22:42;100487.84;;;31.31;24.10
77737;BME280;66903;59.926;30.404;2023-04-25T18:27:43;100489.75;;;31.27;24.46
77737;BME280;66903;59.926;30.404;2023-04-25T18:32:45;100489.63;;;31.24;24.24
77737;BME280;66903;59.926;30.404;2023-04-25T18:37:45;100492.03;;;31.22;24.34
77737;BME280;66903;59.926;30.404;2023-04-25T18:42:46;100489.75;;;31.15;24.80
77737;BME280;66903;59.926;30.404;2023-04-25T18:47:46;100501.28;;;31.15;24.95
77737;BME280;66903;59.926;30.404;2023-04-25T18:52:47;100495.53;;;31.15;25.11
77737;BME280;66903;59.926;30.404;2023-04-25T18:57:48;100501.16;;;31.12;25.02
77737;BME280;66903;59.926;30.404;2023-04-25T19:02:48;100506.09;;;31.11;25.14
77737;BME280;66903;59.926;30.404;2023-04-25T19:07:49;100511.88;;;31.11;25.43
77737;BME280;66903;59.926;30.404;2023-04-25T19:12:49;100501.91;;;31.09;24.73
77737;BME280;66903;59.926;30.404;2023-04-25T19:17:50;100505.13;;;31.07;25.51
77737;BME280;66903;59.926;30.404;2023-04-25T19:22:50;100509.94;;;31.03;25.63
77737;BME280;66903;59.926;30.404;2023-04-25T19:27:52;100500.66;;;30.98;25.02
77737;BME280;66903;59.926;30.404;2023-04-25T19:32:53;100500.41;;;30.91;25.25
77737;BME280;66903;59.926;30.404;2023-04-25T19:37:53;100496.91;;;30.85;24.72
77737;BME280;66903;59.926;30.404;2023-04-25T19:42:54;100492.31;;;30.72;25.36
77737;BME280;66903;59.926;30.404;2023-04-25T19:47:54;100495.97;;;30.61;25.06
77737;BME280;66903;59.926;30.404;2023-04-25T19:52:55;100495.59;;;30.50;25.78
77737;BME280;66903;59.926;30.404;2023-04-25T19:57:56;100492.78;;;30.41;27.48
77737;BME280;66903;59.926;30.404;2023-04-25T20:02:57;100486.91;;;30.38;27.00
77737;BME280;66903;59.926;30.404;2023-04-25T20:07:57;100497.94;;;30.36;26.26
77737;BME280;66903;59.926;30.404;2023-04-25T20:12:58;100490.22;;;30.28;26.53
77737;BME280;66903;59.926;30.404;2023-04-25T20:17:58;100497.00;;;30.23;26.39
77737;BME280;66903;59.926;30.404;2023-04-25T20:22:59;100491.94;;;30.20;26.71
77737;BME280;66903;59.926;30.404;2023-04-25T20:27:59;100497.56;;;30.17;27.17
77737;BME280;66903;59.926;30.404;2023-04-25T20:33:00;100481.00;;;30.14;27.03
77737;BME280;66903;59.926;30.404;2023-04-25T20:38:01;100484.25;;;30.12;27.26
77737;BME280;66903;59.926;30.404;2023-04-25T20:43:01;100483.38;;;30.12;26.71
77737;BME280;66903;59.926;30.404;2023-04-25T20:48:04;100481.69;;;30.11;27.03
77737;BME280;66903;59.926;30.404;2023-04-25T20:53:05;100484.09;;;30.09;26.99
77737;BME280;66903;59.926;30.404;2023-04-25T20:58:05;100481.22;;;30.09;26.76
77737;BME280;66903;59.926;30.404;2023-04-25T21:03:06;100481.69;;;30.11;27.14
